createdAt,value
2018-09-12T00:00:21.481Z,54.80
2018-09-12T00:02:51.989Z,54.80
2018-09-12T00:05:22.674Z,54.90
2018-09-12T00:07:53.204Z,55.70
2018-09-12T00:10:23.794Z,55.30
2018-09-12T00:12:54.278Z,55.40
2018-09-12T00:15:24.901Z,55.40
2018-09-12T00:17:55.432Z,55.50
2018-09-12T00:20:26.366Z,55.60
2018-09-12T00:22:56.855Z,55.70
2018-09-12T00:25:27.426Z,55.80
2018-09-12T00:27:57.916Z,56.10
2018-09-12T00:30:28.399Z,56.20
2018-09-12T00:32:58.931Z,56.40
2018-09-12T00:35:29.487Z,56.50
2018-09-12T00:38:00.008Z,56.40
2018-09-12T00:40:30.602Z,56.30
2018-09-12T00:43:01.143Z,56.40
2018-09-12T00:45:31.799Z,56.60
2018-09-12T00:48:02.324Z,56.50
2018-09-12T00:50:32.925Z,56.60
2018-09-12T00:53:03.419Z,56.70
2018-09-12T00:55:33.951Z,56.60
2018-09-12T00:58:04.678Z,56.70
2018-09-12T01:00:35.274Z,57.00
2018-09-12T01:03:05.743Z,57.00
2018-09-12T01:05:40.678Z,57.00
2018-09-12T01:08:12.596Z,57.00
2018-09-12T01:10:43.179Z,57.10
2018-09-12T01:13:13.793Z,57.20
2018-09-12T01:15:44.338Z,57.20
2018-09-12T01:18:19.025Z,57.20
2018-09-12T01:20:50.992Z,57.20
2018-09-12T01:23:22.178Z,57.40
2018-09-12T01:25:52.799Z,57.50
2018-09-12T01:28:23.374Z,57.60
2018-09-12T01:30:53.956Z,57.70
2018-09-12T01:33:24.494Z,57.70
2018-09-12T01:35:55.137Z,57.60
2018-09-12T01:38:25.658Z,57.80
2018-09-12T01:40:56.548Z,57.90
2018-09-12T01:43:27.088Z,57.90
2018-09-12T01:45:57.687Z,58.60
2018-09-12T01:48:28.176Z,58.70
2018-09-12T01:50:58.708Z,58.30
2018-09-12T01:53:29.304Z,58.50
2018-09-12T01:55:59.819Z,58.60
2018-09-12T01:58:30.335Z,59.00
2018-09-12T02:01:01.233Z,59.00
2018-09-12T02:03:31.718Z,59.20
2018-09-12T02:06:02.238Z,59.30
2018-09-12T02:08:32.710Z,59.40
2018-09-12T02:11:03.258Z,59.50
2018-09-12T02:13:33.784Z,59.70
2018-09-12T02:16:04.379Z,60.10
2018-09-12T02:18:34.920Z,60.30
2018-09-12T02:21:05.515Z,60.80
2018-09-12T02:23:36.052Z,60.80
2018-09-12T02:26:06.709Z,61.00
2018-09-12T02:28:37.236Z,61.10
2018-09-12T02:31:07.941Z,61.10
2018-09-12T02:33:38.523Z,62.10
2018-09-12T02:36:28.494Z,61.20
2018-09-12T02:39:02.370Z,61.70
2018-09-12T02:41:32.839Z,61.50
2018-09-12T02:44:03.335Z,61.60
2018-09-12T02:46:33.927Z,61.90
2018-09-12T02:49:04.483Z,61.80
2018-09-12T02:51:35.098Z,61.80
2018-09-12T02:54:05.716Z,61.90
2018-09-12T02:56:36.239Z,62.30
2018-09-12T02:59:06.826Z,62.60
2018-09-12T03:01:37.476Z,62.40
2018-09-12T03:04:08.185Z,62.50
2018-09-12T03:06:38.834Z,62.70
2018-09-12T03:09:10.540Z,63.10
2018-09-12T03:11:41.094Z,63.00
2018-09-12T03:14:11.652Z,63.30
2018-09-12T03:16:42.183Z,63.00
2018-09-12T03:19:12.749Z,63.00
2018-09-12T03:21:43.504Z,63.20
2018-09-12T03:24:14.239Z,63.90
2018-09-12T03:26:44.840Z,63.40
2018-09-12T03:29:15.382Z,63.00
2018-09-12T03:31:45.992Z,63.00
2018-09-12T03:34:16.604Z,63.10
2018-09-12T03:36:51.165Z,63.00
2018-09-12T03:39:21.720Z,63.20
2018-09-12T03:41:52.400Z,63.30
2018-09-12T03:44:23.033Z,63.20
2018-09-12T03:46:53.646Z,63.50
2018-09-12T03:49:24.186Z,63.30
2018-09-12T03:51:54.824Z,63.30
2018-09-12T03:54:25.337Z,63.30
2018-09-12T03:56:55.901Z,63.40
2018-09-12T03:59:26.505Z,63.40
2018-09-12T04:01:57.202Z,63.50
2018-09-12T04:04:27.806Z,63.40
2018-09-12T04:06:58.410Z,63.50
2018-09-12T04:09:29.005Z,63.70
2018-09-12T04:11:59.689Z,63.60
2018-09-12T04:14:30.203Z,63.50
2018-09-12T04:17:02.497Z,63.80
2018-09-12T04:19:32.959Z,63.80
2018-09-12T04:22:04.091Z,64.20
2018-09-12T04:24:34.684Z,64.90
2018-09-12T04:27:05.477Z,64.10
2018-09-12T04:29:36.062Z,64.10
2018-09-12T04:32:06.753Z,64.20
2018-09-12T04:34:37.321Z,64.40
2018-09-12T04:37:08.172Z,64.60
2018-09-12T04:39:41.307Z,64.70
2018-09-12T04:42:13.017Z,64.80
2018-09-12T04:44:43.567Z,65.00
2018-09-12T04:47:14.292Z,65.10
2018-09-12T04:49:44.892Z,65.10
2018-09-12T04:52:15.419Z,65.10
2018-09-12T04:54:46.020Z,65.80
2018-09-12T04:57:16.624Z,66.20
2018-09-12T04:59:47.236Z,65.40
2018-09-12T05:02:17.902Z,65.50
2018-09-12T05:04:48.482Z,65.80
2018-09-12T05:07:19.050Z,65.80
2018-09-12T05:09:49.576Z,66.00
2018-09-12T05:12:20.144Z,66.10
2018-09-12T05:14:50.707Z,66.20
2018-09-12T05:17:21.234Z,66.20
2018-09-12T05:19:51.730Z,66.40
2018-09-12T05:22:22.402Z,66.50
2018-09-12T05:24:52.949Z,66.60
2018-09-12T05:27:23.534Z,66.70
2018-09-12T05:29:53.944Z,66.80
2018-09-12T05:32:24.427Z,66.80
2018-09-12T05:34:54.867Z,67.00
2018-09-12T05:37:25.393Z,67.10
2018-09-12T05:39:55.835Z,67.40
2018-09-12T05:42:26.333Z,67.50
2018-09-12T05:44:56.912Z,67.80
2018-09-12T05:47:28.597Z,67.80
2018-09-12T05:49:59.182Z,67.90
2018-09-12T05:52:29.752Z,68.10
2018-09-12T05:55:00.289Z,68.10
2018-09-12T05:57:30.856Z,68.30
2018-09-12T06:00:01.385Z,68.30
2018-09-12T06:02:31.842Z,68.30
2018-09-12T06:05:02.358Z,68.60
2018-09-12T06:07:32.895Z,68.60
2018-09-12T06:10:03.519Z,68.90
2018-09-12T06:12:34.180Z,68.90
2018-09-12T06:15:04.922Z,69.10
2018-09-12T06:17:35.563Z,69.20
2018-09-12T06:20:06.439Z,69.10
2018-09-12T06:22:37.249Z,69.50
2018-09-12T06:25:07.910Z,69.40
2018-09-12T06:27:38.464Z,69.60
2018-09-12T06:30:09.314Z,69.70
2018-09-12T06:32:40.049Z,69.80
2018-09-12T06:35:10.752Z,69.60
2018-09-12T06:37:41.393Z,69.90
2018-09-12T06:40:12.002Z,70.20
2018-09-12T06:42:42.622Z,69.90
2018-09-12T06:45:13.216Z,70.20
2018-09-12T06:47:43.773Z,70.20
2018-09-12T06:50:14.342Z,70.30
2018-09-12T06:52:44.892Z,70.10
2018-09-12T06:55:15.398Z,70.10
2018-09-12T06:57:46.049Z,70.30
2018-09-12T07:00:16.723Z,70.40
2018-09-12T07:02:47.401Z,70.50
2018-09-12T07:05:17.985Z,70.90
2018-09-12T07:07:48.927Z,70.80
2018-09-12T07:10:19.444Z,70.90
2018-09-12T07:12:49.991Z,70.80
2018-09-12T07:15:20.488Z,71.20
2018-09-12T07:17:51.111Z,71.00
2018-09-12T07:20:21.638Z,71.20
2018-09-12T07:22:52.207Z,71.10
2018-09-12T07:25:22.731Z,71.90
2018-09-12T07:27:53.429Z,71.70
2018-09-12T07:30:24.097Z,72.00
2018-09-12T07:32:54.831Z,72.40
2018-09-12T07:35:25.672Z,72.40
2018-09-12T07:37:56.509Z,72.70
2018-09-12T07:40:27.277Z,72.30
2018-09-12T07:42:58.072Z,72.90
2018-09-12T07:45:28.839Z,73.20
2018-09-12T07:47:59.416Z,73.50
2018-09-12T07:50:29.987Z,73.40
2018-09-12T07:53:00.643Z,74.10
2018-09-12T07:55:31.252Z,75.40
2018-09-12T07:58:01.989Z,74.60
2018-09-12T08:00:32.562Z,74.70
2018-09-12T08:03:03.166Z,74.60
2018-09-12T08:05:33.804Z,74.60
2018-09-12T08:08:04.467Z,74.60
2018-09-12T08:10:35.107Z,74.50
2018-09-12T08:13:05.724Z,74.20
2018-09-12T08:15:36.256Z,74.30
2018-09-12T08:18:07.083Z,74.10
2018-09-12T08:20:37.798Z,73.60
2018-09-12T08:23:08.627Z,73.10
2018-09-12T08:25:39.163Z,72.80
2018-09-12T08:28:09.807Z,72.40
2018-09-12T08:30:40.433Z,71.90
2018-09-12T08:33:11.104Z,71.60
2018-09-12T08:35:41.748Z,71.30
2018-09-12T08:38:12.612Z,71.00
2018-09-12T08:40:43.972Z,70.60
2018-09-12T08:43:16.044Z,70.40
2018-09-12T08:45:48.117Z,70.00
2018-09-12T08:48:19.352Z,69.50
2018-09-12T08:50:52.724Z,69.40
2018-09-12T08:53:24.400Z,69.20
2018-09-12T08:55:56.043Z,69.10
2018-09-12T08:58:27.854Z,68.70
2018-09-12T09:00:59.924Z,68.40
2018-09-12T09:03:33.210Z,68.00
2018-09-12T09:06:04.587Z,67.50
2018-09-12T09:08:36.085Z,67.00
2018-09-12T09:11:08.211Z,66.20
2018-09-12T09:13:39.943Z,66.10
2018-09-12T09:16:11.758Z,65.90
2018-09-12T09:18:43.093Z,65.40
2018-09-12T09:21:15.349Z,65.10
2018-09-12T09:23:48.609Z,64.60
2018-09-12T09:26:20.780Z,63.50
2018-09-12T09:28:53.596Z,63.00
2018-09-12T09:31:24.551Z,62.80
2018-09-12T09:33:57.159Z,62.70
2018-09-12T09:36:44.283Z,62.00
2018-09-12T09:53:09.500Z,61.80
2018-09-12T09:55:40.168Z,62.20
2018-09-12T09:58:10.890Z,62.00
2018-09-12T10:00:46.525Z,61.60
2018-09-12T10:03:22.286Z,61.40
2018-09-12T10:05:57.791Z,61.30
2018-09-12T10:08:31.955Z,61.50
2018-09-12T10:11:02.537Z,61.30
2018-09-12T10:13:33.088Z,61.40
2018-09-12T10:16:03.761Z,61.30
2018-09-12T10:18:34.369Z,61.40
2018-09-12T10:21:05.025Z,61.20
2018-09-12T10:23:35.625Z,61.20
2018-09-12T10:26:06.267Z,61.40
2018-09-12T10:28:36.656Z,61.40
2018-09-12T10:31:07.289Z,61.50
2018-09-12T10:33:37.789Z,61.80
2018-09-12T10:36:08.422Z,62.00
2018-09-12T10:38:38.883Z,62.20
2018-09-12T10:41:12.392Z,62.30
2018-09-12T10:43:42.939Z,62.30
2018-09-12T10:46:13.418Z,62.30
2018-09-12T10:48:43.909Z,62.20
2018-09-12T10:51:14.662Z,62.10
2018-09-12T10:53:45.182Z,62.00
2018-09-12T10:56:15.987Z,62.00
2018-09-12T10:58:46.491Z,62.00
2018-09-12T11:01:17.068Z,63.00
2018-09-12T11:03:47.946Z,62.30
2018-09-12T11:06:18.586Z,62.00
2018-09-12T11:08:49.179Z,60.60
2018-09-12T11:11:19.849Z,59.40
2018-09-12T11:13:50.563Z,59.30
2018-09-12T11:16:21.251Z,59.00
2018-09-12T11:18:51.831Z,59.00
2018-09-12T11:21:22.468Z,59.00
2018-09-12T11:23:53.239Z,59.00
2018-09-12T11:26:23.829Z,58.90
2018-09-12T11:28:54.459Z,58.90
2018-09-12T11:31:25.070Z,59.30
2018-09-12T11:33:55.591Z,59.60
2018-09-12T11:36:26.299Z,60.00
2018-09-12T11:38:56.837Z,60.50
2018-09-12T11:41:27.480Z,60.20
2018-09-12T11:43:58.047Z,60.50
2018-09-12T11:46:28.623Z,60.70
2018-09-12T11:48:59.284Z,60.80
2018-09-12T11:51:29.894Z,60.80
2018-09-12T11:54:00.412Z,61.20
2018-09-12T11:56:30.936Z,61.60
2018-09-12T11:59:01.438Z,62.10
2018-09-12T12:01:32.031Z,62.50
2018-09-12T12:04:02.610Z,62.80
2018-09-12T12:06:37.629Z,62.90
2018-09-12T12:09:11.291Z,63.10
2018-09-12T12:11:42.275Z,62.80
2018-09-12T12:14:12.779Z,62.60
2018-09-12T12:16:43.594Z,62.80
2018-09-12T12:19:14.169Z,62.90
2018-09-12T12:21:44.698Z,62.90
2018-09-12T12:24:15.331Z,62.80
2018-09-12T12:26:45.998Z,62.70
2018-09-12T12:29:16.480Z,63.20
2018-09-12T12:31:47.018Z,62.90
2018-09-12T12:34:17.566Z,64.30
2018-09-12T12:36:48.198Z,64.00
2018-09-12T12:39:18.760Z,63.90
2018-09-12T12:41:49.345Z,64.00
2018-09-12T12:44:19.882Z,63.60
2018-09-12T12:46:50.661Z,62.70
2018-09-12T12:49:21.324Z,61.80
2018-09-12T12:51:52.127Z,61.20
2018-09-12T12:54:22.651Z,61.20
2018-09-12T12:56:53.192Z,61.50
2018-09-12T12:59:23.798Z,61.60
2018-09-12T13:01:54.400Z,61.70
2018-09-12T13:04:25.108Z,61.90
2018-09-12T13:06:55.771Z,62.60
2018-09-12T13:09:26.308Z,62.90
2018-09-12T13:11:56.868Z,63.10
2018-09-12T13:14:31.041Z,63.70
2018-09-12T13:17:01.760Z,64.50
2018-09-12T13:19:32.175Z,64.70
2018-09-12T13:22:03.157Z,64.90
2018-09-12T13:24:33.744Z,64.80
2018-09-12T13:27:05.278Z,64.80
2018-09-12T13:29:35.908Z,64.70
2018-09-12T13:32:06.579Z,64.60
2018-09-12T13:34:37.153Z,65.00
2018-09-12T13:37:07.741Z,64.80
2018-09-12T13:39:38.265Z,65.00
2018-09-12T13:42:09.081Z,65.50
2018-09-12T13:44:39.625Z,64.80
2018-09-12T13:47:10.305Z,65.20
2018-09-12T13:49:40.843Z,65.20
2018-09-12T13:52:11.449Z,65.50
2018-09-12T13:54:41.961Z,65.50
2018-09-12T13:57:14.411Z,65.00
2018-09-12T13:59:45.352Z,65.60
2018-09-12T14:02:16.227Z,65.40
2018-09-12T14:04:46.722Z,66.10
2018-09-12T14:07:17.285Z,66.80
2018-09-12T14:09:47.801Z,67.60
2018-09-12T14:12:18.446Z,68.10
2018-09-12T14:14:49.039Z,69.10
2018-09-12T14:17:19.909Z,69.80
2018-09-12T14:19:50.541Z,71.10
2018-09-12T14:22:21.182Z,71.00
2018-09-12T14:24:51.786Z,71.90
2018-09-12T14:27:22.520Z,72.90
2018-09-12T14:29:53.065Z,72.80
2018-09-12T14:32:23.649Z,71.90
2018-09-12T14:34:54.157Z,72.40
2018-09-12T14:37:24.809Z,72.50
2018-09-12T14:39:55.480Z,73.00
2018-09-12T14:42:27.139Z,73.30
2018-09-12T14:44:57.716Z,73.50
2018-09-12T14:47:28.302Z,73.60
2018-09-12T14:49:58.968Z,74.20
2018-09-12T14:52:29.568Z,75.00
2018-09-12T14:55:00.250Z,74.30
2018-09-12T14:57:30.851Z,74.90
2018-09-12T15:00:01.849Z,74.90
2018-09-12T15:02:32.386Z,75.10
2018-09-12T15:05:02.942Z,75.20
2018-09-12T15:07:33.675Z,74.90
2018-09-12T15:10:04.345Z,74.80
2018-09-12T15:12:34.869Z,75.20
2018-09-12T15:15:05.463Z,75.30
2018-09-12T15:17:36.012Z,75.60
2018-09-12T15:20:06.894Z,76.00
2018-09-12T15:22:37.442Z,75.90
2018-09-12T15:25:08.102Z,76.00
2018-09-12T15:27:38.785Z,76.00
2018-09-12T15:30:09.862Z,76.10
2018-09-12T15:32:40.901Z,75.90
2018-09-12T15:35:11.379Z,76.00
2018-09-12T15:37:41.946Z,76.10
2018-09-12T15:40:18.402Z,76.20
2018-09-12T15:42:49.569Z,75.80
2018-09-12T15:45:20.254Z,75.90
2018-09-12T15:47:50.985Z,76.10
2018-09-12T15:50:23.295Z,76.30
2018-09-12T15:52:54.674Z,76.40
2018-09-12T15:55:25.483Z,76.50
2018-09-12T15:57:56.660Z,77.50
2018-09-12T16:00:27.071Z,76.70
2018-09-12T16:02:58.316Z,76.60
2018-09-12T16:05:29.154Z,76.50
2018-09-12T16:07:59.818Z,76.60
2018-09-12T16:10:30.598Z,77.00
2018-09-12T16:13:02.530Z,76.80
2018-09-12T16:15:32.991Z,77.30
2018-09-12T16:18:03.574Z,77.40
2018-09-12T16:20:34.125Z,77.60
2018-09-12T16:23:04.740Z,77.40
2018-09-12T16:25:50.658Z,77.30
2018-09-12T16:31:36.898Z,77.30
2018-09-12T16:34:07.657Z,77.50
2018-09-12T16:36:38.200Z,77.30
2018-09-12T16:39:17.947Z,77.30
2018-09-12T16:41:52.782Z,77.30
2018-09-12T16:44:23.438Z,77.20
2018-09-12T16:46:54.126Z,77.20
2018-09-12T16:49:24.919Z,76.90
2018-09-12T16:51:55.488Z,77.40
2018-09-12T16:54:26.139Z,76.90
2018-09-12T16:56:56.942Z,76.90
2018-09-12T16:59:27.691Z,77.00
2018-09-12T17:01:58.312Z,76.90
2018-09-12T17:04:28.859Z,76.80
2018-09-12T17:06:59.357Z,76.90
2018-09-12T17:09:29.939Z,77.20
2018-09-12T17:12:00.467Z,77.00
2018-09-12T17:14:31.009Z,76.90
2018-09-12T17:17:01.576Z,76.90
2018-09-12T17:19:32.271Z,76.80
2018-09-12T17:22:02.831Z,76.80
2018-09-12T17:24:33.399Z,76.70
2018-09-12T17:27:04.128Z,76.60
2018-09-12T17:29:34.761Z,77.10
2018-09-12T17:32:05.310Z,77.00
2018-09-12T17:34:35.974Z,76.80
2018-09-12T17:37:06.643Z,76.90
2018-09-12T17:39:37.411Z,77.00
2018-09-12T17:42:08.014Z,77.20
2018-09-12T17:44:38.591Z,77.40
2018-09-12T17:47:09.179Z,77.40
2018-09-12T17:49:39.800Z,77.30
2018-09-12T17:52:10.344Z,77.40
2018-09-12T17:54:40.866Z,77.60
2018-09-12T17:57:11.420Z,77.30
2018-09-12T17:59:42.408Z,77.10
2018-09-12T18:02:13.106Z,77.20
2018-09-12T18:04:43.719Z,77.40
2018-09-12T18:07:14.268Z,77.60
2018-09-12T18:09:45.243Z,78.50
2018-09-12T18:12:15.820Z,77.90
2018-09-12T18:14:46.344Z,77.80
2018-09-12T18:17:17.398Z,78.70
2018-09-12T18:19:48.065Z,77.90
2018-09-12T18:22:18.659Z,77.90
2018-09-12T18:24:49.213Z,77.90
2018-09-12T18:27:19.782Z,78.20
2018-09-12T18:29:50.656Z,78.00
2018-09-12T18:32:21.163Z,78.20
2018-09-12T18:34:52.108Z,79.00
2018-09-12T18:37:22.641Z,78.30
2018-09-12T18:39:53.271Z,78.10
2018-09-12T18:42:23.838Z,77.90
2018-09-12T18:44:54.390Z,77.80
2018-09-12T18:47:24.897Z,77.70
2018-09-12T18:49:55.528Z,77.70
2018-09-12T18:52:26.887Z,77.70
2018-09-12T18:54:57.568Z,78.20
2018-09-12T18:57:28.128Z,77.10
2018-09-12T18:59:59.389Z,76.80
2018-09-12T19:02:30.059Z,76.80
2018-09-12T19:05:00.696Z,76.70
2018-09-12T19:07:31.287Z,76.80
2018-09-12T19:10:02.049Z,76.80
2018-09-12T19:12:32.666Z,76.70
2018-09-12T19:15:03.308Z,76.60
2018-09-12T19:17:34.002Z,76.60
2018-09-12T19:20:04.723Z,76.40
2018-09-12T19:22:35.196Z,76.70
2018-09-12T19:25:05.821Z,76.30
2018-09-12T19:27:36.252Z,77.00
2018-09-12T19:30:07.695Z,77.20
2018-09-12T19:32:38.354Z,77.30
2018-09-12T19:35:09.027Z,77.30
2018-09-12T19:37:39.833Z,77.30
2018-09-12T19:40:10.457Z,77.10
2018-09-12T19:42:41.079Z,77.20
2018-09-12T19:45:11.699Z,77.10
2018-09-12T19:47:42.321Z,77.10
2018-09-12T19:50:12.907Z,77.10
2018-09-12T19:52:43.547Z,77.00
2018-09-12T19:55:14.009Z,77.00
2018-09-12T19:57:44.617Z,76.90
2018-09-12T20:00:18.285Z,77.00
2018-09-12T20:02:48.998Z,77.90
2018-09-12T20:05:19.649Z,77.20
2018-09-12T20:07:50.148Z,77.30
2018-09-12T20:10:20.870Z,77.40
2018-09-12T20:12:51.483Z,77.50
2018-09-12T20:15:22.341Z,77.40
2018-09-12T20:17:52.924Z,77.40
2018-09-12T20:20:23.573Z,77.50
2018-09-12T20:23:00.769Z,77.60
2018-09-12T20:25:31.366Z,77.60
2018-09-12T20:28:01.910Z,77.50
2018-09-12T20:30:32.551Z,77.50
2018-09-12T20:33:03.100Z,77.50
2018-09-12T20:35:33.825Z,77.50
2018-09-12T20:38:04.473Z,77.50
2018-09-12T20:40:40.907Z,77.50
2018-09-12T20:43:11.469Z,77.90
2018-09-12T20:45:42.187Z,78.00
2018-09-12T20:48:12.768Z,78.30
2018-09-12T20:50:43.351Z,78.60
2018-09-12T20:53:13.870Z,78.80
2018-09-12T20:55:44.504Z,79.70
2018-09-12T20:58:15.160Z,79.20
2018-09-12T21:00:45.825Z,79.20
2018-09-12T21:03:16.397Z,79.30
2018-09-12T21:05:47.070Z,79.20
2018-09-12T21:08:17.690Z,79.30
2018-09-12T21:10:48.371Z,79.30
2018-09-12T21:13:18.998Z,79.40
2018-09-12T21:15:49.583Z,79.40
2018-09-12T21:18:21.167Z,79.30
2018-09-12T21:20:51.695Z,79.20
2018-09-12T21:23:22.277Z,79.00
2018-09-12T21:25:52.887Z,79.00
2018-09-12T21:28:23.429Z,78.90
2018-09-12T21:30:54.078Z,78.70
2018-09-12T21:33:24.794Z,78.70
2018-09-12T21:35:55.638Z,78.60
2018-09-12T21:38:26.218Z,78.30
2018-09-12T21:40:56.864Z,78.20
2018-09-12T21:43:27.481Z,78.10
2018-09-12T21:45:58.998Z,77.90
2018-09-12T21:48:31.044Z,77.90
2018-09-12T21:51:01.603Z,77.80
2018-09-12T21:53:32.235Z,77.90
2018-09-12T21:56:02.809Z,77.80
2018-09-12T21:58:33.400Z,77.90
2018-09-12T22:01:03.998Z,77.70
2018-09-12T22:03:34.609Z,77.80
2018-09-12T22:06:05.540Z,77.90
2018-09-12T22:08:36.118Z,77.80
2018-09-12T22:11:06.689Z,77.90
2018-09-12T22:13:37.229Z,77.80
2018-09-12T22:16:07.860Z,77.60
2018-09-12T22:18:38.351Z,77.70
2018-09-12T22:21:08.958Z,77.80
2018-09-12T22:23:39.458Z,77.80
2018-09-12T22:26:10.284Z,77.90
2018-09-12T22:28:40.783Z,77.90
2018-09-12T22:31:11.299Z,77.80
2018-09-12T22:33:41.816Z,78.00
2018-09-12T22:36:12.422Z,78.10
2018-09-12T22:38:42.945Z,78.10
2018-09-12T22:41:14.018Z,78.20
2018-09-12T22:43:44.498Z,78.50
2018-09-12T22:46:15.083Z,78.70
2018-09-12T22:48:45.542Z,78.60
2018-09-12T22:51:16.128Z,78.70
2018-09-12T22:53:46.669Z,79.10
2018-09-12T22:56:17.241Z,79.10
2018-09-12T22:58:47.759Z,79.90
2018-09-12T23:01:18.674Z,79.70
2018-09-12T23:03:49.234Z,80.00
2018-09-12T23:06:19.778Z,80.30
2018-09-12T23:08:50.383Z,80.50
2018-09-12T23:11:20.979Z,80.60
2018-09-12T23:13:51.484Z,80.80
2018-09-12T23:16:21.998Z,81.00
2018-09-12T23:18:52.470Z,81.20
2018-09-12T23:21:23.324Z,81.10
2018-09-12T23:23:53.841Z,81.20
2018-09-12T23:26:24.413Z,81.20
2018-09-12T23:28:54.913Z,81.20
2018-09-12T23:31:25.485Z,81.10
2018-09-12T23:33:56.039Z,81.40
2018-09-12T23:36:26.961Z,81.50
2018-09-12T23:38:57.498Z,81.80
2018-09-12T23:41:28.138Z,82.00
2018-09-12T23:43:58.640Z,82.00
2018-09-12T23:46:29.239Z,81.70
2018-09-12T23:48:59.758Z,81.30
2018-09-12T23:51:33.374Z,81.20
2018-09-12T23:54:03.978Z,81.10
2018-09-12T23:56:34.851Z,81.00
2018-09-12T23:59:05.542Z,81.10
